Time;durP1;ratioP1;P1;durP2;ratioP2;P2;SDS_P1;SDS_P2;PMS_P1;PMS_P2;Temp;Humidity;BMP_temperature;BMP_pressure;BME280_temperature;BME280_humidity;BME280_pressure;Samples;Min_cycle;Max_cycle;Signal;HPM_P1;HPM_P2
2021/03/25 00:01:16;;;;;;;30.63;19.00;;;10.40;87.60;;;;;;5071690;28;20412;-74
2021/03/25 00:03:46;;;;;;;28.43;18.37;;;10.30;87.60;;;;;;5072663;28;20464;-73
2021/03/25 00:06:12;;;;;;;30.97;19.50;;;10.30;87.50;;;;;;5072226;28;20457;-74
2021/03/25 00:08:38;;;;;;;28.40;18.63;;;10.20;88.10;;;;;;5072206;28;20415;-74
2021/03/25 00:11:03;;;;;;;25.73;18.50;;;10.20;88.50;;;;;;5072113;28;20183;-74
2021/03/25 00:13:30;;;;;;;26.50;19.20;;;10.20;89.00;;;;;;5072851;28;20182;-74
2021/03/25 00:15:56;;;;;;;27.73;18.43;;;10.20;89.70;;;;;;5071675;28;20181;-74
2021/03/25 00:18:22;;;;;;;28.03;19.60;;;10.10;88.70;;;;;;5072465;28;20494;-74
2021/03/25 00:20:48;;;;;;;34.93;19.73;;;10.10;88.90;;;;;;5072364;28;20190;-74
2021/03/25 00:23:15;;;;;;;27.30;19.83;;;10.00;89.00;;;;;;5071989;28;20178;-74
2021/03/25 00:25:41;;;;;;;24.90;18.43;;;10.00;89.10;;;;;;5071994;28;20459;-74
2021/03/25 00:28:09;;;;;;;27.73;18.73;;;9.90;90.20;;;;;;5071128;28;20432;-74
2021/03/25 00:30:35;;;;;;;28.47;18.13;;;9.90;90.40;;;;;;5072179;28;20786;-74
2021/03/25 00:33:03;;;;;;;28.83;20.37;;;9.90;90.40;;;;;;5071346;28;20411;-74
2021/03/25 00:35:29;;;;;;;28.27;19.20;;;9.80;90.40;;;;;;5072212;28;20498;-74
2021/03/25 00:37:55;;;;;;;26.73;18.80;;;9.80;90.50;;;;;;5071394;28;20412;-74
2021/03/25 00:40:21;;;;;;;27.83;19.40;;;9.80;90.50;;;;;;5072209;28;20464;-74
2021/03/25 00:42:48;;;;;;;26.50;18.20;;;9.80;90.70;;;;;;5072210;28;20407;-74
2021/03/25 00:45:23;;;;;;;28.30;19.27;;;9.80;90.80;;;;;;5071450;28;20425;-74
2021/03/25 00:47:49;;;;;;;30.37;19.40;;;9.70;91.00;;;;;;5072099;28;20437;-74
2021/03/25 00:50:29;;;;;;;30.63;20.93;;;9.70;91.30;;;;;;5071397;28;20423;-74
2021/03/25 00:52:56;;;;;;;30.00;20.83;;;9.70;91.40;;;;;;5070202;28;20161;-74
2021/03/25 00:55:23;;;;;;;30.57;21.40;;;9.70;91.60;;;;;;5071775;28;20775;-74
2021/03/25 00:57:48;;;;;;;30.10;20.50;;;9.70;91.40;;;;;;5072063;28;20419;-74
2021/03/25 01:00:23;;;;;;;34.50;21.80;;;9.70;91.40;;;;;;5071118;28;20411;-74
2021/03/25 01:02:48;;;;;;;32.73;21.60;;;9.60;91.60;;;;;;5072070;28;20184;-74
2021/03/25 01:05:14;;;;;;;31.47;20.80;;;9.60;91.90;;;;;;5071164;28;20478;-74
2021/03/25 01:07:40;;;;;;;30.97;20.67;;;9.60;91.80;;;;;;5070621;28;20310;-74
2021/03/25 01:10:20;;;;;;;32.90;21.30;;;9.60;92.10;;;;;;5070923;28;20439;-73
2021/03/25 01:12:46;;;;;;;29.37;19.70;;;9.60;92.00;;;;;;5070643;28;20173;-74
2021/03/25 01:15:12;;;;;;;28.30;19.27;;;9.60;92.00;;;;;;5071036;28;20419;-73
2021/03/25 01:17:49;;;;;;;27.40;20.90;;;9.60;91.60;;;;;;5071571;28;20740;-74
2021/03/25 01:20:20;;;;;;;33.87;21.17;;;9.60;91.80;;;;;;5071120;28;20380;-74
2021/03/25 01:22:46;;;;;;;30.07;20.20;;;9.60;91.70;;;;;;5071701;28;20417;-75
2021/03/25 01:25:12;;;;;;;27.27;17.57;;;9.60;91.70;;;;;;5071020;28;21079;-75
2021/03/25 01:27:38;;;;;;;30.03;19.13;;;9.50;91.60;;;;;;5070508;28;20677;-75
2021/03/25 01:30:05;;;;;;;31.40;20.67;;;9.50;91.70;;;;;;5070668;28;20522;-75
2021/03/25 01:32:30;;;;;;;29.03;19.40;;;9.50;91.70;;;;;;5071490;28;20243;-74
2021/03/25 01:34:56;;;;;;;28.70;18.47;;;9.50;91.80;;;;;;5070966;28;20807;-74
2021/03/25 01:37:22;;;;;;;26.33;19.13;;;9.50;91.70;;;;;;5071163;28;20220;-75
2021/03/25 01:39:50;;;;;;;26.17;18.57;;;9.50;91.80;;;;;;5072536;28;20173;-75
2021/03/25 01:42:28;;;;;;;27.30;18.50;;;9.40;91.70;;;;;;5074591;28;20252;-75
2021/03/25 01:44:54;;;;;;;26.13;19.17;;;9.40;91.60;;;;;;5074995;28;20407;-75
2021/03/25 01:47:20;;;;;;;25.87;17.57;;;9.40;91.90;;;;;;5074750;28;20437;-75
2021/03/25 01:49:46;;;;;;;26.53;18.43;;;9.40;92.00;;;;;;5075104;28;20780;-75
2021/03/25 01:52:32;;;;;;;23.30;15.93;;;9.30;91.80;;;;;;5074448;28;20887;-76
2021/03/25 01:55:17;;;;;;;27.97;18.80;;;9.30;91.60;;;;;;5074637;28;20184;-76
2021/03/25 01:58:13;;;;;;;32.67;19.30;;;9.20;92.00;;;;;;5075271;28;20403;-75
2021/03/25 02:00:52;;;;;;;23.83;18.10;;;9.20;92.50;;;;;;5074827;28;20419;-77
2021/03/25 02:03:17;;;;;;;21.67;18.10;;;9.20;92.50;;;;;;5074032;28;20918;-76
2021/03/25 02:06:05;;;;;;;25.07;18.53;;;9.20;92.60;;;;;;5074885;28;20409;-76
2021/03/25 02:08:49;;;;;;;26.47;17.73;;;9.20;92.40;;;;;;5074677;28;20258;-76
2021/03/25 02:11:42;;;;;;;26.60;17.60;;;9.10;92.10;;;;;;5069235;28;20711;-76
2021/03/25 02:14:18;;;;;;;23.57;16.37;;;9.10;92.10;;;;;;5054065;28;20408;-76
2021/03/25 02:16:46;;;;;;;26.13;16.67;;;9.10;92.00;;;;;;5054805;28;20453;-76
2021/03/25 02:19:44;;;;;;;22.40;15.73;;;9.00;92.10;;;;;;5056807;28;20436;-75
2021/03/25 02:22:46;;;;;;;23.20;15.13;;;9.00;92.30;;;;;;5073709;28;20418;-76
2021/03/25 02:25:17;;;;;;;26.47;17.20;;;9.00;92.40;;;;;;5073973;28;20422;-74
2021/03/25 02:27:51;;;;;;;24.80;16.80;;;9.00;92.60;;;;;;5074593;28;20796;-75
2021/03/25 02:30:34;;;;;;;26.03;17.73;;;8.90;92.60;;;;;;5071722;28;20556;-75
2021/03/25 02:33:03;;;;;;;25.00;16.63;;;8.90;92.40;;;;;;5073720;28;20410;-75
2021/03/25 02:35:43;;;;;;;26.63;17.87;;;8.80;92.40;;;;;;5074482;28;20411;-76
2021/03/25 02:38:16;;;;;;;25.70;17.60;;;8.80;92.30;;;;;;5073626;28;20373;-75
2021/03/25 02:40:55;;;;;;;27.30;18.57;;;8.80;92.50;;;;;;5073297;28;20397;-75
2021/03/25 02:43:34;;;;;;;24.40;18.60;;;8.70;93.30;;;;;;5073616;28;20429;-76
2021/03/25 02:46:21;;;;;;;32.93;19.83;;;8.70;93.60;;;;;;5072376;28;20500;-75
2021/03/25 02:48:49;;;;;;;33.07;19.17;;;8.80;93.80;;;;;;5074144;28;20403;-76
2021/03/25 02:51:23;;;;;;;27.70;18.50;;;8.80;93.80;;;;;;5072758;28;20412;-76
2021/03/25 02:53:49;;;;;;;29.13;19.27;;;8.80;93.50;;;;;;5074181;28;20389;-76
2021/03/25 02:56:26;;;;;;;31.83;20.90;;;8.90;93.40;;;;;;5072796;28;20426;-76
2021/03/25 02:59:01;;;;;;;29.63;20.60;;;8.90;93.70;;;;;;5073777;28;20407;-76
2021/03/25 03:01:32;;;;;;;30.10;19.80;;;8.80;93.40;;;;;;5074116;28;20491;-76
2021/03/25 03:04:08;;;;;;;30.33;20.87;;;8.80;93.60;;;;;;5073327;28;20827;-75
2021/03/25 03:06:41;;;;;;;28.43;19.00;;;8.80;93.70;;;;;;5073906;28;20492;-76
2021/03/25 03:09:12;;;;;;;36.20;21.00;;;8.90;93.80;;;;;;5072072;28;20750;-75
2021/03/25 03:11:43;;;;;;;29.97;20.80;;;8.80;93.70;;;;;;5073603;28;20400;-76
2021/03/25 03:14:14;;;;;;;27.60;20.07;;;8.90;93.80;;;;;;5072598;28;20394;-76
2021/03/25 03:16:44;;;;;;;29.57;20.10;;;8.50;93.80;;;;;;5073448;28;20898;-76
2021/03/25 03:19:34;;;;;;;30.40;20.17;;;8.20;95.20;;;;;;5072769;28;20756;-75
2021/03/25 03:22:06;;;;;;;29.13;19.30;;;8.40;95.50;;;;;;5072799;28;20408;-75
2021/03/25 03:24:33;;;;;;;33.27;19.60;;;8.50;95.30;;;;;;5073307;28;20393;-76
2021/03/25 03:27:21;;;;;;;29.63;18.60;;;8.40;95.00;;;;;;5073212;28;20482;-75
2021/03/25 03:29:48;;;;;;;27.70;18.80;;;8.30;95.30;;;;;;5073417;28;20491;-75
2021/03/25 03:32:13;;;;;;;27.23;18.40;;;8.30;95.50;;;;;;5072638;28;20403;-75
2021/03/25 03:34:43;;;;;;;35.47;19.97;;;8.40;95.50;;;;;;5073220;28;20418;-76
2021/03/25 03:37:37;;;;;;;26.47;18.33;;;8.40;95.30;;;;;;5072371;28;20184;-75
2021/03/25 03:40:13;;;;;;;23.70;18.47;;;8.40;95.20;;;;;;5069811;28;20441;-75
2021/03/25 03:42:41;;;;;;;26.97;17.80;;;8.50;95.30;;;;;;5073181;28;20410;-76
2021/03/25 03:45:09;;;;;;;26.00;18.33;;;8.50;95.10;;;;;;5072163;28;20393;-75
2021/03/25 03:47:38;;;;;;;25.90;17.43;;;8.50;94.80;;;;;;5072874;28;20536;-76
2021/03/25 03:50:19;;;;;;;27.63;17.20;;;8.50;94.80;;;;;;5072815;28;20435;-75
2021/03/25 03:52:49;;;;;;;26.60;17.43;;;8.60;94.90;;;;;;5073400;28;20393;-76
2021/03/25 03:55:18;;;;;;;26.30;17.70;;;8.60;94.90;;;;;;5071711;28;20518;-75
2021/03/25 03:58:05;;;;;;;28.03;17.30;;;8.70;95.00;;;;;;5073239;28;20422;-76
2021/03/25 04:00:30;;;;;;;24.07;17.57;;;8.70;94.60;;;;;;5072070;28;20383;-76
2021/03/25 04:03:24;;;;;;;25.87;18.30;;;8.70;94.70;;;;;;5072690;28;20401;-76
2021/03/25 04:05:56;;;;;;;22.27;17.20;;;8.70;94.80;;;;;;5072821;28;20170;-75
2021/03/25 04:08:41;;;;;;;28.03;17.43;;;8.70;94.60;;;;;;5072020;28;20443;-75
2021/03/25 04:11:28;;;;;;;27.57;17.30;;;8.60;94.50;;;;;;5070510;28;20418;-76
2021/03/25 04:14:08;;;;;;;27.47;17.50;;;8.60;94.80;;;;;;5067127;28;20411;-75
2021/03/25 04:16:36;;;;;;;26.33;17.30;;;8.70;94.70;;;;;;5069317;28;20491;-75
2021/03/25 04:19:08;;;;;;;22.20;16.70;;;8.60;94.70;;;;;;5070682;28;20431;-75
2021/03/25 04:21:51;;;;;;;26.43;16.77;;;8.60;94.90;;;;;;5072246;28;20437;-76
2021/03/25 04:24:23;;;;;;;25.87;17.57;;;8.60;94.80;;;;;;5071720;28;20422;-75
2021/03/25 04:26:52;;;;;;;24.73;18.83;;;8.60;94.80;;;;;;5072685;28;20474;-75
2021/03/25 04:29:27;;;;;;;27.20;18.50;;;8.60;94.70;;;;;;5071350;28;20415;-75
2021/03/25 04:31:53;;;;;;;26.77;18.00;;;8.60;94.90;;;;;;5072462;28;20376;-75
2021/03/25 04:34:19;;;;;;;24.53;17.67;;;8.60;94.90;;;;;;5071518;28;20954;-75
2021/03/25 04:36:46;;;;;;;23.93;16.53;;;8.60;95.10;;;;;;5071620;28;20542;-76
2021/03/25 04:39:17;;;;;;;26.30;17.17;;;8.60;95.20;;;;;;5070270;28;20414;-75
2021/03/25 04:41:44;;;;;;;25.73;17.77;;;8.60;95.30;;;;;;5072420;28;20398;-75
2021/03/25 04:44:31;;;;;;;25.30;17.97;;;8.60;95.70;;;;;;5070064;28;20925;-75
2021/03/25 04:47:09;;;;;;;26.07;17.40;;;8.60;95.40;;;;;;5072155;28;20439;-76
2021/03/25 04:49:45;;;;;;;26.50;19.30;;;8.60;95.40;;;;;;5071106;28;20408;-75
2021/03/25 04:52:21;;;;;;;30.67;17.83;;;8.70;95.30;;;;;;5071416;28;20366;-75
2021/03/25 04:54:46;;;;;;;29.40;17.63;;;8.70;95.40;;;;;;5071725;28;20414;-75
2021/03/25 04:57:25;;;;;;;24.40;17.13;;;8.70;95.40;;;;;;5070920;28;20792;-75
2021/03/25 04:59:53;;;;;;;27.20;18.10;;;8.80;95.50;;;;;;5072140;28;20437;-76
2021/03/25 05:02:19;;;;;;;26.93;17.73;;;8.80;95.40;;;;;;5071243;28;20410;-76
2021/03/25 05:04:50;;;;;;;26.10;18.17;;;8.90;95.20;;;;;;5071690;28;20426;-76
2021/03/25 05:07:24;;;;;;;24.27;18.03;;;8.90;95.10;;;;;;5071088;28;20803;-76
2021/03/25 05:09:52;;;;;;;24.90;17.50;;;8.90;95.20;;;;;;5071985;28;20399;-76
2021/03/25 05:12:18;;;;;;;27.10;18.83;;;9.00;95.00;;;;;;5071150;28;20430;-76
2021/03/25 05:14:47;;;;;;;24.20;17.27;;;9.00;95.00;;;;;;5072922;28;20423;-76
2021/03/25 05:18:00;;;;;;;26.53;17.17;;;9.00;95.10;;;;;;5074841;28;20411;-76
2021/03/25 05:20:57;;;;;;;25.07;17.77;;;9.00;94.90;;;;;;5052492;28;20570;-76
2021/03/25 05:23:27;;;;;;;25.37;18.53;;;9.00;94.80;;;;;;5040490;28;20823;-76
2021/03/25 05:26:17;;;;;;;25.90;18.70;;;9.00;94.90;;;;;;5074227;28;20548;-76
2021/03/25 05:29:03;;;;;;;27.70;19.43;;;9.00;95.00;;;;;;5072301;28;20775;-76
2021/03/25 05:31:31;;;;;;;24.70;17.80;;;9.00;95.10;;;;;;5074859;28;20405;-75
2021/03/25 05:34:02;;;;;;;28.90;18.10;;;9.00;95.00;;;;;;5075241;28;20419;-76
2021/03/25 05:36:29;;;;;;;26.83;17.37;;;9.00;95.10;;;;;;5074708;28;20418;-75
2021/03/25 05:38:56;;;;;;;29.80;18.53;;;9.00;95.20;;;;;;5075596;28;20399;-75
2021/03/25 05:42:04;;;;;;;23.63;16.87;;;9.00;95.20;;;;;;5073206;28;20426;-75
2021/03/25 05:44:51;;;;;;;27.70;17.50;;;9.00;95.20;;;;;;5054297;28;20783;-75
2021/03/25 05:47:34;;;;;;;25.23;18.03;;;9.00;95.00;;;;;;5073341;28;20527;-75
2021/03/25 05:50:14;;;;;;;26.37;18.70;;;9.00;95.20;;;;;;5075337;28;20428;-76
2021/03/25 05:53:04;;;;;;;28.57;18.33;;;9.00;95.60;;;;;;5075579;28;20453;-76
2021/03/25 05:55:54;;;;;;;23.87;17.60;;;9.00;95.70;;;;;;5074619;28;20478;-76
2021/03/25 05:58:43;;;;;;;28.37;18.73;;;9.00;95.50;;;;;;5073166;28;20457;-76
2021/03/25 06:01:21;;;;;;;28.63;18.87;;;9.10;95.50;;;;;;5074398;28;20407;-76
2021/03/25 06:03:56;;;;;;;25.53;19.00;;;9.10;95.40;;;;;;5075173;28;20402;-76
2021/03/25 06:06:39;;;;;;;23.40;16.97;;;9.10;95.50;;;;;;5074794;28;20430;-76
2021/03/25 06:09:16;;;;;;;27.20;18.63;;;9.10;95.50;;;;;;5075074;28;20403;-76
2021/03/25 06:11:59;;;;;;;27.53;20.63;;;9.10;95.50;;;;;;5067498;28;20417;-76
2021/03/25 06:14:28;;;;;;;27.20;19.10;;;9.10;95.40;;;;;;5073972;28;20446;-76
2021/03/25 06:17:18;;;;;;;29.90;18.83;;;9.20;95.40;;;;;;5074364;28;20931;-76
2021/03/25 06:20:12;;;;;;;28.83;19.03;;;9.10;95.50;;;;;;5074810;28;20532;-74
2021/03/25 06:22:58;;;;;;;27.13;18.40;;;9.10;95.60;;;;;;5074678;28;20748;-76
2021/03/25 06:25:38;;;;;;;26.00;17.57;;;9.10;95.60;;;;;;5073887;28;20502;-76
2021/03/25 06:28:04;;;;;;;31.27;18.63;;;9.20;95.90;;;;;;5072569;28;20839;-76
2021/03/25 06:30:40;;;;;;;35.00;19.90;;;9.20;96.00;;;;;;5072934;28;20423;-76
2021/03/25 06:33:14;;;;;;;30.07;18.70;;;9.30;96.10;;;;;;5073865;28;20244;-76
2021/03/25 06:35:49;;;;;;;31.30;19.53;;;9.30;96.10;;;;;;5073845;28;21875;-78
2021/03/25 06:38:23;;;;;;;27.07;19.53;;;9.30;95.90;;;;;;5073375;28;20423;-73
2021/03/25 06:41:04;;;;;;;28.40;19.97;;;9.40;95.90;;;;;;5073715;28;20423;-75
2021/03/25 06:43:43;;;;;;;29.37;20.30;;;9.40;95.60;;;;;;5071609;28;20672;-74
2021/03/25 06:46:18;;;;;;;30.33;18.73;;;9.50;95.70;;;;;;5073889;28;20793;-74
2021/03/25 06:48:48;;;;;;;26.03;18.90;;;9.50;95.80;;;;;;5071569;28;20772;-74
2021/03/25 06:51:24;;;;;;;26.90;19.43;;;9.50;95.80;;;;;;5073964;28;20423;-74
2021/03/25 06:54:26;;;;;;;28.33;19.80;;;9.50;95.90;;;;;;5079092;28;20496;-74
2021/03/25 06:56:55;;;;;;;30.40;19.67;;;9.60;95.70;;;;;;5072753;28;20938;-74
2021/03/25 06:59:32;;;;;;;31.40;20.70;;;9.60;95.60;;;;;;5072923;28;20468;-75
2021/03/25 07:02:30;;;;;;;30.90;19.27;;;9.60;95.70;;;;;;5074304;28;20406;-75
2021/03/25 07:05:01;;;;;;;29.90;19.67;;;9.70;95.90;;;;;;5073839;28;20431;-74
2021/03/25 07:07:31;;;;;;;26.83;19.90;;;9.70;95.50;;;;;;5073537;28;20947;-75
2021/03/25 07:09:58;;;;;;;29.40;19.53;;;9.70;95.30;;;;;;5072992;28;20412;-74
2021/03/25 07:12:31;;;;;;;32.40;20.50;;;9.70;94.80;;;;;;5073409;28;20812;-74
2021/03/25 07:14:58;;;;;;;24.70;18.50;;;9.80;94.70;;;;;;5070989;28;20422;-74
2021/03/25 07:17:40;;;;;;;27.67;19.87;;;9.90;94.70;;;;;;5071345;28;20780;-75
2021/03/25 07:20:17;;;;;;;29.37;18.40;;;9.90;94.70;;;;;;5072357;28;20420;-75
2021/03/25 07:23:23;;;;;;;29.53;19.10;;;10.00;94.10;;;;;;5072511;28;20834;-74
2021/03/25 07:25:52;;;;;;;21.53;14.90;;;10.00;94.00;;;;;;5071131;28;20459;-74
2021/03/25 07:28:22;;;;;;;18.10;13.17;;;10.80;99.90;;;;;;5073134;28;20574;-75
2021/03/25 07:30:57;;;;;;;25.40;17.83;;;11.60;98.50;;;;;;5073163;28;20415;-76
2021/03/25 07:33:27;;;;;;;28.53;18.77;;;12.60;95.60;;;;;;5072919;28;20426;-73
2021/03/25 07:36:06;;;;;;;25.10;20.40;;;13.40;93.90;;;;;;5073569;28;20501;-74
2021/03/25 07:38:34;;;;;;;25.37;19.93;;;14.10;91.70;;;;;;5072778;28;20425;-73
2021/03/25 07:41:13;;;;;;;27.23;21.13;;;14.60;89.90;;;;;;5073509;28;20466;-73
2021/03/25 07:43:52;;;;;;;28.40;22.40;;;14.90;84.30;;;;;;5073450;28;20405;-73
2021/03/25 07:46:49;;;;;;;29.93;20.50;;;14.90;80.90;;;;;;5075262;28;20531;-73
2021/03/25 07:49:22;;;;;;;26.97;20.00;;;15.00;79.80;;;;;;5088260;28;20413;-74
2021/03/25 07:52:06;;;;;;;30.37;22.40;;;15.20;78.80;;;;;;5081404;28;20801;-73
2021/03/25 07:54:41;;;;;;;30.87;21.80;;;15.20;77.60;;;;;;5072797;28;20411;-73
2021/03/25 07:57:09;;;;;;;29.30;20.60;;;15.30;76.90;;;;;;5073228;28;20414;-73
2021/03/25 07:59:49;;;;;;;32.87;23.77;;;15.20;76.00;;;;;;5072482;28;20423;-72
2021/03/25 08:02:33;;;;;;;30.10;22.10;;;15.10;76.20;;;;;;5072231;28;20411;-74
2021/03/25 08:05:21;;;;;;;24.97;16.27;;;15.10;79.90;;;;;;5073000;28;20409;-73
2021/03/25 08:07:49;;;;;;;32.13;22.30;;;15.40;82.60;;;;;;5072894;28;20465;-73
2021/03/25 08:10:27;;;;;;;27.20;22.10;;;15.90;82.10;;;;;;5072397;28;20435;-73
2021/03/25 08:13:01;;;;;;;19.73;16.87;;;16.20;79.80;;;;;;5073035;28;20747;-73
2021/03/25 08:15:43;;;;;;;28.53;21.70;;;16.30;78.80;;;;;;5071889;28;20433;-73
2021/03/25 08:18:27;;;;;;;35.70;25.60;;;16.60;78.70;;;;;;5073091;28;20745;-73
2021/03/25 08:21:26;;;;;;;35.07;25.57;;;16.90;77.40;;;;;;5073130;28;20438;-73
2021/03/25 08:24:16;;;;;;;33.10;25.17;;;17.20;76.50;;;;;;5072856;28;20415;-73
2021/03/25 08:27:01;;;;;;;29.20;23.57;;;17.40;75.30;;;;;;5072143;28;20459;-73
2021/03/25 08:29:49;;;;;;;30.87;25.17;;;17.40;74.10;;;;;;5072141;28;20434;-73
2021/03/25 08:32:30;;;;;;;36.50;28.77;;;17.30;74.80;;;;;;5072684;28;20391;-73
2021/03/25 08:35:22;;;;;;;37.67;29.47;;;17.20;72.60;;;;;;5072471;28;20907;-73
2021/03/25 08:38:33;;;;;;;34.00;27.37;;;17.10;75.20;;;;;;5071614;28;20438;-73
2021/03/25 08:41:02;;;;;;;38.70;29.80;;;17.20;75.20;;;;;;5077165;28;20457;-73
2021/03/25 08:44:08;;;;;;;41.77;30.43;;;17.20;72.20;;;;;;5073004;28;20423;-73
2021/03/25 08:46:46;;;;;;;31.30;26.20;;;17.00;72.60;;;;;;5068717;28;20469;-73
2021/03/25 08:49:37;;;;;;;37.17;28.90;;;16.90;74.90;;;;;;5071092;28;20406;-73
2021/03/25 08:52:05;;;;;;;25.53;18.37;;;16.80;74.40;;;;;;5072586;28;20459;-73
2021/03/25 08:54:43;;;;;;;27.50;22.77;;;16.60;76.70;;;;;;5072020;28;20765;-73
2021/03/25 08:57:15;;;;;;;22.13;19.67;;;16.70;78.20;;;;;;5072639;28;20410;-73
2021/03/25 08:59:46;;;;;;;27.13;23.13;;;16.80;78.60;;;;;;5070789;28;20467;-73
2021/03/25 09:02:21;;;;;;;24.83;21.20;;;17.00;77.70;;;;;;5071320;28;20403;-73
2021/03/25 09:05:13;;;;;;;27.03;21.10;;;17.20;78.40;;;;;;5072394;28;20513;-73
2021/03/25 09:07:40;;;;;;;32.57;26.33;;;17.40;79.00;;;;;;5071677;28;20442;-73
2021/03/25 09:10:10;;;;;;;35.30;26.63;;;17.50;76.20;;;;;;5072781;28;20421;-73
2021/03/25 09:12:36;;;;;;;23.20;19.50;;;17.60;75.30;;;;;;5071175;28;20973;-73
2021/03/25 09:15:06;;;;;;;30.70;25.10;;;17.60;77.80;;;;;;5072325;28;20419;-73
2021/03/25 09:17:46;;;;;;;24.30;19.90;;;17.80;78.40;;;;;;5071851;28;20480;-73
2021/03/25 09:20:20;;;;;;;27.83;22.20;;;17.90;76.90;;;;;;5072216;28;20912;-73
2021/03/25 09:22:49;;;;;;;28.07;23.17;;;18.00;75.70;;;;;;5071946;28;20387;-73
2021/03/25 09:25:27;;;;;;;21.60;18.80;;;18.20;77.00;;;;;;5071453;28;20426;-72
2021/03/25 09:27:53;;;;;;;31.50;27.37;;;18.30;76.00;;;;;;5072107;28;20951;-73
2021/03/25 09:30:33;;;;;;;32.57;27.10;;;18.30;72.10;;;;;;5071404;28;20454;-74
2021/03/25 09:33:36;;;;;;;37.07;28.00;;;18.30;70.50;;;;;;5072015;28;20176;-73
2021/03/25 09:36:22;;;;;;;34.93;28.33;;;18.30;70.30;;;;;;5071427;28;20403;-73
2021/03/25 09:38:50;;;;;;;35.17;27.87;;;18.00;69.30;;;;;;5071770;28;20415;-73
2021/03/25 09:41:36;;;;;;;33.73;29.30;;;17.70;69.00;;;;;;5071977;28;20415;-72
2021/03/25 09:44:08;;;;;;;42.00;31.20;;;17.40;69.10;;;;;;5072074;28;20882;-72
2021/03/25 09:46:45;;;;;;;39.70;31.43;;;17.10;71.00;;;;;;5071314;28;20458;-72
2021/03/25 09:49:37;;;;;;;39.40;29.10;;;16.80;71.30;;;;;;5071438;28;20414;-72
2021/03/25 09:52:12;;;;;;;36.30;29.43;;;16.60;72.30;;;;;;5071908;28;20863;-74
2021/03/25 09:54:41;;;;;;;34.70;28.57;;;16.30;72.80;;;;;;5059524;28;20567;-73
2021/03/25 09:57:29;;;;;;;39.43;28.80;;;16.10;74.30;;;;;;5071760;28;20842;-72
2021/03/25 10:00:08;;;;;;;35.10;28.37;;;15.90;75.70;;;;;;5071547;28;20427;-73
2021/03/25 10:02:40;;;;;;;40.13;29.50;;;15.80;76.50;;;;;;5072841;28;20432;-73
2021/03/25 10:05:34;;;;;;;45.70;31.93;;;15.70;76.70;;;;;;5075322;28;20445;-73
2021/03/25 10:08:08;;;;;;;39.93;30.30;;;15.60;77.00;;;;;;5074671;28;20447;-73
2021/03/25 10:10:45;;;;;;;40.90;30.60;;;15.60;77.90;;;;;;5074199;28;20434;-73
2021/03/25 10:13:17;;;;;;;42.30;31.00;;;15.60;77.70;;;;;;5074970;28;20417;-71
2021/03/25 10:15:43;;;;;;;42.83;30.57;;;15.50;77.80;;;;;;5074215;28;20885;-71
2021/03/25 10:18:17;;;;;;;39.17;32.40;;;15.60;78.80;;;;;;5074655;28;20517;-72
2021/03/25 10:20:57;;;;;;;36.43;28.70;;;15.60;79.70;;;;;;5073844;28;20564;-72
2021/03/25 10:23:31;;;;;;;38.30;30.90;;;15.70;79.90;;;;;;5074101;28;20425;-72
2021/03/25 10:26:11;;;;;;;40.23;29.50;;;15.70;80.20;;;;;;5074581;28;20804;-72
2021/03/25 10:28:39;;;;;;;36.80;28.97;;;15.80;79.60;;;;;;5074228;28;20463;-72
2021/03/25 10:31:15;;;;;;;38.87;29.83;;;15.80;78.30;;;;;;5074802;28;20417;-72
2021/03/25 10:33:41;;;;;;;36.17;27.77;;;15.80;77.90;;;;;;5074376;28;20442;-72
2021/03/25 10:36:14;;;;;;;36.37;29.53;;;15.70;78.00;;;;;;5074857;28;20422;-72
2021/03/25 10:39:07;;;;;;;37.93;30.27;;;15.80;79.10;;;;;;5074113;28;20380;-72
2021/03/25 10:41:35;;;;;;;41.50;29.20;;;15.80;78.40;;;;;;5072783;28;20422;-72
2021/03/25 10:44:37;;;;;;;42.83;31.53;;;15.80;78.70;;;;;;5074929;28;20440;-72
2021/03/25 10:47:07;;;;;;;40.27;30.03;;;15.80;78.50;;;;;;5052059;28;20460;-72
2021/03/25 10:49:42;;;;;;;36.90;28.77;;;15.80;78.10;;;;;;5069928;28;20429;-72
2021/03/25 10:52:25;;;;;;;37.10;29.10;;;15.80;78.10;;;;;;5074707;28;20459;-72
2021/03/25 10:54:55;;;;;;;38.50;29.97;;;16.00;79.50;;;;;;5074132;28;20499;-72
2021/03/25 10:57:28;;;;;;;36.23;29.77;;;16.20;79.10;;;;;;5074306;28;20415;-72
2021/03/25 11:00:00;;;;;;;39.50;30.63;;;16.50;79.40;;;;;;5074369;28;20418;-73
2021/03/25 11:02:31;;;;;;;46.60;33.37;;;16.70;76.90;;;;;;5073723;28;20412;-72
2021/03/25 11:05:21;;;;;;;39.20;31.20;;;17.00;75.40;;;;;;5074252;28;20426;-72
2021/03/25 11:07:50;;;;;;;43.00;30.83;;;17.20;75.30;;;;;;5070366;28;20471;-73
2021/03/25 11:10:26;;;;;;;41.67;30.50;;;17.30;75.70;;;;;;5072873;28;20415;-73
2021/03/25 11:13:07;;;;;;;49.60;32.10;;;17.50;74.10;;;;;;5073608;28;20738;-73
2021/03/25 11:15:42;;;;;;;42.60;31.03;;;17.70;73.40;;;;;;5073391;28;20403;-73
2021/03/25 11:18:34;;;;;;;39.87;30.77;;;17.90;73.70;;;;;;5074023;28;20399;-73
2021/03/25 11:21:02;;;;;;;41.13;31.57;;;18.10;73.70;;;;;;5074088;28;20479;-73
2021/03/25 11:23:29;;;;;;;40.73;32.07;;;18.20;71.80;;;;;;5073265;28;20848;-73
2021/03/25 11:26:00;;;;;;;37.63;30.97;;;18.30;73.10;;;;;;5073707;28;20451;-73
2021/03/25 11:28:33;;;;;;;38.50;31.77;;;18.30;71.80;;;;;;5073220;28;20469;-73
2021/03/25 11:31:26;;;;;;;38.53;30.37;;;18.40;71.70;;;;;;5073358;28;20465;-73
2021/03/25 11:33:53;;;;;;;42.17;32.27;;;18.50;68.90;;;;;;5073378;28;20477;-73
2021/03/25 11:36:44;;;;;;;41.40;32.13;;;18.50;71.00;;;;;;5073325;28;20782;-73
2021/03/25 11:39:19;;;;;;;39.20;33.20;;;18.60;70.70;;;;;;5073564;28;20406;-73
2021/03/25 11:41:47;;;;;;;45.60;33.97;;;18.80;71.30;;;;;;5072898;28;20540;-73
2021/03/25 11:44:42;;;;;;;41.43;33.37;;;18.90;68.20;;;;;;5073505;28;20846;-73
2021/03/25 11:47:34;;;;;;;45.20;35.20;;;19.00;68.60;;;;;;5072190;28;20451;-73
2021/03/25 11:50:03;;;;;;;40.50;32.97;;;19.00;70.60;;;;;;5073811;28;20407;-73
2021/03/25 11:52:42;;;;;;;42.40;34.27;;;19.20;68.90;;;;;;5072217;28;20480;-73
2021/03/25 11:55:31;;;;;;;42.03;33.63;;;19.40;68.30;;;;;;5073390;28;20410;-73
2021/03/25 11:58:05;;;;;;;39.40;34.43;;;19.50;67.20;;;;;;5073427;28;20778;-73
2021/03/25 12:00:31;;;;;;;42.70;35.50;;;19.60;67.10;;;;;;5072602;28;20481;-73
2021/03/25 12:02:57;;;;;;;41.00;35.03;;;19.70;66.10;;;;;;5073306;28;20510;-73
2021/03/25 12:05:30;;;;;;;38.30;32.13;;;19.80;66.20;;;;;;5071825;28;20272;-73
2021/03/25 12:08:17;;;;;;;39.60;33.97;;;19.90;66.30;;;;;;5071995;28;20511;-73
2021/03/25 12:10:43;;;;;;;40.50;33.77;;;19.90;65.00;;;;;;5071083;28;20451;-73
2021/03/25 12:13:10;;;;;;;38.83;33.30;;;19.90;66.40;;;;;;5072918;28;20399;-73
2021/03/25 12:15:36;;;;;;;37.67;31.87;;;19.90;65.00;;;;;;5072253;28;20403;-73
2021/03/25 12:18:13;;;;;;;41.10;34.50;;;20.00;65.00;;;;;;5073005;28;20412;-73
2021/03/25 12:20:39;;;;;;;43.67;35.23;;;20.00;63.60;;;;;;5072348;28;20164;-73
2021/03/25 12:23:14;;;;;;;43.77;37.87;;;20.00;64.90;;;;;;5071731;28;20418;-73
2021/03/25 12:25:39;;;;;;;45.17;36.47;;;20.00;65.30;;;;;;5070812;28;20824;-73
2021/03/25 12:28:06;;;;;;;50.10;40.73;;;20.00;65.50;;;;;;5072669;28;20451;-72
2021/03/25 12:30:32;;;;;;;47.10;38.47;;;19.90;63.90;;;;;;5072143;28;20180;-72
2021/03/25 12:32:58;;;;;;;45.90;37.43;;;19.90;64.40;;;;;;5072479;28;20399;-72
2021/03/25 12:35:24;;;;;;;42.70;33.93;;;19.90;65.70;;;;;;5072245;28;20173;-72
2021/03/25 12:37:51;;;;;;;43.03;33.77;;;19.90;64.40;;;;;;5071938;28;20411;-72
2021/03/25 12:40:20;;;;;;;42.87;35.67;;;20.00;63.50;;;;;;5072251;28;20600;-72
2021/03/25 12:42:47;;;;;;;43.33;35.00;;;19.80;63.20;;;;;;5071929;28;20404;-72
2021/03/25 12:45:31;;;;;;;39.10;33.23;;;19.80;63.90;;;;;;5072275;28;20914;-72
2021/03/25 12:47:57;;;;;;;36.00;30.60;;;19.80;63.60;;;;;;5072477;28;20451;-72
2021/03/25 12:50:24;;;;;;;31.93;28.37;;;19.80;61.80;;;;;;5072704;28;20426;-72
2021/03/25 12:52:50;;;;;;;40.23;31.87;;;19.80;61.80;;;;;;5071921;28;20412;-72
2021/03/25 12:55:16;;;;;;;40.20;32.37;;;19.80;62.10;;;;;;5072400;28;20419;-72
2021/03/25 12:57:42;;;;;;;40.10;29.73;;;19.80;62.60;;;;;;5071723;28;20420;-72
2021/03/25 13:00:14;;;;;;;36.57;29.03;;;19.80;62.00;;;;;;5072634;28;20207;-72
2021/03/25 13:02:41;;;;;;;37.27;29.77;;;19.90;62.70;;;;;;5070628;28;20388;-72
2021/03/25 13:05:09;;;;;;;39.23;32.37;;;19.80;61.20;;;;;;5072363;28;20407;-72
2021/03/25 13:07:34;;;;;;;37.10;30.40;;;19.80;61.70;;;;;;5070352;28;20902;-72
2021/03/25 13:10:00;;;;;;;35.60;30.70;;;19.80;62.10;;;;;;5072299;28;20454;-72
2021/03/25 13:12:27;;;;;;;37.63;28.50;;;19.80;63.10;;;;;;5072246;28;20214;-73
2021/03/25 13:14:53;;;;;;;33.93;28.77;;;19.70;62.20;;;;;;5071651;28;20188;-72